Time;durP1;ratioP1;P1;durP2;ratioP2;P2;SDS_P1;SDS_P2;PMS_P1;PMS_P2;Temp;Humidity;BMP_temperature;BMP_pressure;BME280_temperature;BME280_humidity;BME280_pressure;Samples;Min_cycle;Max_cycle;Signal;HPM_P1;HPM_P2
2021/01/31 00:03:17;;;;;;;3.35;3.08;;;;;;;;;;5054234;28;20259;-79
2021/01/31 00:05:43;;;;;;;3.28;2.60;;;;;;;;;;5054349;28;20174;-78
2021/01/31 00:08:10;;;;;;;2.90;2.50;;;;;;;;;;5054075;28;20190;-77
2021/01/31 00:10:39;;;;;;;4.82;3.38;;;;;;;;;;5054050;28;20248;-79
2021/01/31 00:13:06;;;;;;;2.90;2.70;;;;;;;;;;5053750;28;20225;-78
2021/01/31 00:18:35;;;;;;;2.92;2.65;;;;;;;;;;5054201;28;20252;-79
2021/01/31 00:21:01;;;;;;;2.87;2.67;;;;;;;;;;5054065;28;20637;-77
2021/01/31 00:23:27;;;;;;;3.50;3.20;;;;;;;;;;5053698;28;20472;-79
2021/01/31 00:25:53;;;;;;;3.80;3.25;;;;;;;;;;5053895;28;20254;-79
2021/01/31 00:28:23;;;;;;;3.55;3.25;;;;;;;;;;5035544;28;20270;-79
2021/01/31 00:30:50;;;;;;;3.50;3.20;;;;;;;;;;5035774;28;20720;-78
2021/01/31 00:33:17;;;;;;;3.42;3.13;;;;;;;;;;5053712;28;20179;-78
2021/01/31 00:35:44;;;;;;;3.40;2.97;;;;;;;;;;5053542;28;20170;-78
2021/01/31 00:38:11;;;;;;;3.45;3.15;;;;;;;;;;5053357;28;20569;-79
2021/01/31 00:40:37;;;;;;;3.30;3.10;;;;;;;;;;5053707;28;20180;-79
2021/01/31 00:43:06;;;;;;;3.88;3.58;;;;;;;;;;5053322;28;20237;-79
2021/01/31 00:48:36;;;;;;;2.85;2.60;;;;;;;;;;5053773;28;20223;-78
2021/01/31 00:51:02;;;;;;;3.47;3.20;;;;;;;;;;5053478;28;20198;-79
2021/01/31 00:53:28;;;;;;;3.10;2.80;;;;;;;;;;5052904;28;20412;-78
2021/01/31 00:55:54;;;;;;;4.93;4.22;;;;;;;;;;5053342;28;20414;-78
2021/01/31 00:58:20;;;;;;;3.60;3.30;;;;;;;;;;5052630;28;20182;-76
2021/01/31 01:00:46;;;;;;;4.60;3.70;;;;;;;;;;5034785;28;20427;-78
2021/01/31 01:03:12;;;;;;;4.27;3.60;;;;;;;;;;5053103;28;20555;-78
2021/01/31 01:05:41;;;;;;;3.85;3.55;;;;;;;;;;5053180;28;20766;-78
2021/01/31 01:08:07;;;;;;;3.75;3.40;;;;;;;;;;5053302;28;20527;-77
2021/01/31 01:10:34;;;;;;;3.90;3.60;;;;;;;;;;5052841;28;20175;-78
2021/01/31 01:13:04;;;;;;;3.97;3.40;;;;;;;;;;5052876;28;20472;-79
2021/01/31 01:15:31;;;;;;;3.83;3.53;;;;;;;;;;5052843;28;20171;-78
2021/01/31 01:18:00;;;;;;;4.25;3.85;;;;;;;;;;5052836;28;20196;-79
2021/01/31 01:20:29;;;;;;;4.03;3.67;;;;;;;;;;5054408;28;20174;-77
2021/01/31 01:22:55;;;;;;;4.60;4.20;;;;;;;;;;5055692;28;20200;-77
2021/01/31 01:25:22;;;;;;;4.30;3.90;;;;;;;;;;5052670;28;20171;-78
2021/01/31 01:27:48;;;;;;;5.15;4.57;;;;;;;;;;5052664;28;20421;-79
2021/01/31 01:30:16;;;;;;;4.78;4.38;;;;;;;;;;5052081;28;20170;-79
2021/01/31 01:32:42;;;;;;;4.63;4.22;;;;;;;;;;5056241;28;20247;-78
2021/01/31 01:35:09;;;;;;;4.40;4.03;;;;;;;;;;5056839;28;20254;-79
2021/01/31 01:37:36;;;;;;;5.80;3.83;;;;;;;;;;5056682;28;20610;-79
2021/01/31 01:40:04;;;;;;;4.50;4.10;;;;;;;;;;5056403;28;20171;-79
2021/01/31 01:42:30;;;;;;;4.68;4.10;;;;;;;;;;5038493;28;20210;-78
2021/01/31 01:44:55;;;;;;;4.53;4.13;;;;;;;;;;5056246;28;20526;-79
2021/01/31 01:47:23;;;;;;;5.77;5.13;;;;;;;;;;5056526;28;20410;-79
2021/01/31 01:49:51;;;;;;;5.05;4.55;;;;;;;;;;5056536;28;20469;-79
2021/01/31 01:52:32;;;;;;;7.22;5.95;;;;;;;;;;5056487;28;20173;-79
2021/01/31 01:55:01;;;;;;;4.32;3.92;;;;;;;;;;5030023;28;20649;-78
2021/01/31 01:57:30;;;;;;;6.53;5.05;;;;;;;;;;5056260;28;20177;-79
2021/01/31 01:59:56;;;;;;;4.60;4.20;;;;;;;;;;5055373;28;20171;-77
2021/01/31 02:02:35;;;;;;;6.70;6.10;;;;;;;;;;5056049;28;20553;-76
2021/01/31 02:05:01;;;;;;;5.93;5.43;;;;;;;;;;5056127;28;20178;-77
2021/01/31 02:07:27;;;;;;;5.32;4.82;;;;;;;;;;5056035;28;20247;-77
2021/01/31 02:09:53;;;;;;;5.73;5.23;;;;;;;;;;5055999;28;20260;-78
2021/01/31 02:12:21;;;;;;;6.33;5.73;;;;;;;;;;5056066;28;20425;-78
2021/01/31 02:14:48;;;;;;;5.93;5.43;;;;;;;;;;5037760;28;20481;-78
2021/01/31 02:17:32;;;;;;;5.20;4.80;;;;;;;;;;5056038;28;20534;-77
2021/01/31 02:20:17;;;;;;;6.32;5.72;;;;;;;;;;5055880;28;20357;-77
2021/01/31 02:23:05;;;;;;;4.88;4.38;;;;;;;;;;5056078;28;20599;-78
2021/01/31 02:25:42;;;;;;;6.15;5.30;;;;;;;;;;5055490;28;20179;-77
2021/01/31 02:28:27;;;;;;;5.30;4.78;;;;;;;;;;5055593;28;20228;-78
2021/01/31 02:30:56;;;;;;;6.13;5.53;;;;;;;;;;5055401;28;20633;-78
2021/01/31 02:33:22;;;;;;;5.75;5.15;;;;;;;;;;5037660;28;20273;-78
2021/01/31 02:35:50;;;;;;;5.57;4.97;;;;;;;;;;5037486;28;20590;-78
2021/01/31 02:38:36;;;;;;;8.82;5.90;;;;;;;;;;5055452;28;20433;-78
2021/01/31 02:41:08;;;;;;;5.85;5.20;;;;;;;;;;5055042;28;20190;-78
2021/01/31 02:43:37;;;;;;;6.93;6.10;;;;;;;;;;5054962;28;20222;-78
2021/01/31 02:46:14;;;;;;;7.18;6.15;;;;;;;;;;5054973;28;20181;-78
2021/01/31 02:49:03;;;;;;;6.70;6.00;;;;;;;;;;5055475;28;20257;-78
2021/01/31 02:51:31;;;;;;;10.20;5.82;;;;;;;;;;5024665;28;20195;-78
2021/01/31 02:54:05;;;;;;;7.13;6.43;;;;;;;;;;5055188;28;20173;-78
2021/01/31 02:56:44;;;;;;;8.25;5.78;;;;;;;;;;5055231;28;20208;-78
2021/01/31 02:59:24;;;;;;;7.20;6.50;;;;;;;;;;5036225;28;20655;-78
2021/01/31 03:01:53;;;;;;;8.27;6.20;;;;;;;;;;5059787;28;20171;-78
2021/01/31 03:04:35;;;;;;;6.57;5.97;;;;;;;;;;5055926;28;20177;-78
2021/01/31 03:07:13;;;;;;;7.40;6.55;;;;;;;;;;5054643;28;20519;-77
2021/01/31 03:09:41;;;;;;;5.97;5.38;;;;;;;;;;5054697;28;20261;-77
2021/01/31 03:12:09;;;;;;;6.97;6.28;;;;;;;;;;5054890;28;20221;-77
2021/01/31 03:14:43;;;;;;;10.00;6.15;;;;;;;;;;5054550;28;20229;-77
2021/01/31 03:17:21;;;;;;;6.28;5.68;;;;;;;;;;5054875;28;20268;-77
2021/01/31 03:19:54;;;;;;;7.60;6.20;;;;;;;;;;5054678;28;20171;-77
2021/01/31 03:22:22;;;;;;;6.90;6.15;;;;;;;;;;5054721;28;20216;-77
2021/01/31 03:24:52;;;;;;;6.43;5.70;;;;;;;;;;5054423;28;20173;-77
2021/01/31 03:27:24;;;;;;;7.22;6.53;;;;;;;;;;5054601;28;20172;-78
2021/01/31 03:29:50;;;;;;;7.88;6.50;;;;;;;;;;5053787;28;20185;-77
2021/01/31 03:32:19;;;;;;;8.02;6.43;;;;;;;;;;5054617;28;20165;-77
2021/01/31 03:34:54;;;;;;;8.63;6.70;;;;;;;;;;5054322;28;20522;-76
2021/01/31 03:37:20;;;;;;;7.38;6.30;;;;;;;;;;5054481;28;20181;-77
2021/01/31 03:39:49;;;;;;;9.52;7.93;;;;;;;;;;5054287;28;20200;-78
2021/01/31 03:42:15;;;;;;;7.95;7.10;;;;;;;;;;5054205;28;20242;-77
2021/01/31 03:44:42;;;;;;;7.80;6.63;;;;;;;;;;5054234;28;20221;-76
2021/01/31 03:47:25;;;;;;;8.80;7.65;;;;;;;;;;5054137;28;20176;-77
2021/01/31 03:49:56;;;;;;;9.98;7.85;;;;;;;;;;5054257;28;20165;-78
2021/01/31 03:52:22;;;;;;;8.00;7.18;;;;;;;;;;5054116;28;20238;-78
2021/01/31 03:54:48;;;;;;;8.60;7.70;;;;;;;;;;5035218;28;20187;-77
2021/01/31 03:57:34;;;;;;;8.93;7.07;;;;;;;;;;5035874;28;20664;-77
2021/01/31 04:00:12;;;;;;;8.18;6.78;;;;;;;;;;5052696;28;20606;-77
2021/01/31 04:02:52;;;;;;;9.25;7.13;;;;;;;;;;5053789;28;20204;-77
2021/01/31 04:05:18;;;;;;;7.90;7.10;;;;;;;;;;5053737;28;20165;-77
2021/01/31 04:07:45;;;;;;;8.38;6.72;;;;;;;;;;5053821;28;20200;-78
2021/01/31 04:10:12;;;;;;;11.38;8.50;;;;;;;;;;5053324;28;20171;-78
2021/01/31 04:12:40;;;;;;;9.88;8.85;;;;;;;;;;5053523;28;20171;-77
2021/01/31 04:15:12;;;;;;;10.57;8.30;;;;;;;;;;5053526;28;20200;-78
2021/01/31 04:17:46;;;;;;;8.13;7.32;;;;;;;;;;5053709;28;20164;-78
2021/01/31 04:20:12;;;;;;;11.00;8.27;;;;;;;;;;5053532;28;20203;-78
2021/01/31 04:22:38;;;;;;;9.85;7.88;;;;;;;;;;5053408;28;20206;-78
2021/01/31 04:25:05;;;;;;;12.73;7.43;;;;;;;;;;5053346;28;20173;-78
2021/01/31 04:27:31;;;;;;;9.15;8.07;;;;;;;;;;5053571;28;20847;-78
2021/01/31 04:29:57;;;;;;;9.23;8.00;;;;;;;;;;5052864;28;20294;-78
2021/01/31 04:32:23;;;;;;;9.00;8.03;;;;;;;;;;5053263;28;20857;-78
2021/01/31 04:34:49;;;;;;;9.67;8.57;;;;;;;;;;5053353;28;20415;-78
2021/01/31 04:37:15;;;;;;;11.00;7.32;;;;;;;;;;5053158;28;20412;-78
2021/01/31 04:39:41;;;;;;;10.30;7.83;;;;;;;;;;5053087;28;20639;-78
2021/01/31 04:42:08;;;;;;;9.37;7.30;;;;;;;;;;5058566;28;20513;-78
2021/01/31 04:44:34;;;;;;;8.15;6.95;;;;;;;;;;5053344;28;20479;-77
2021/01/31 04:47:07;;;;;;;10.33;7.20;;;;;;;;;;5053130;28;20169;-77
2021/01/31 04:49:36;;;;;;;9.05;7.35;;;;;;;;;;5053130;28;20415;-77
2021/01/31 04:52:15;;;;;;;9.07;7.28;;;;;;;;;;5053236;28;20581;-77
2021/01/31 04:54:43;;;;;;;10.20;7.80;;;;;;;;;;5052872;28;20201;-77
2021/01/31 04:57:09;;;;;;;9.90;7.75;;;;;;;;;;5053000;28;20235;-77
2021/01/31 04:59:37;;;;;;;9.07;7.30;;;;;;;;;;5052072;28;20169;-77
2021/01/31 05:02:23;;;;;;;9.10;7.70;;;;;;;;;;5052584;28;20415;-78
2021/01/31 05:04:51;;;;;;;10.23;7.35;;;;;;;;;;5052892;28;20168;-78
2021/01/31 05:07:17;;;;;;;9.00;7.45;;;;;;;;;;5052812;28;20705;-77
2021/01/31 05:09:43;;;;;;;9.77;7.90;;;;;;;;;;5052718;28;20257;-78
2021/01/31 05:12:20;;;;;;;9.73;8.53;;;;;;;;;;5052817;28;20203;-78
2021/01/31 05:14:58;;;;;;;10.98;7.75;;;;;;;;;;5052468;28;20459;-78
2021/01/31 05:17:24;;;;;;;9.07;7.20;;;;;;;;;;5052619;28;20168;-77
2021/01/31 05:19:50;;;;;;;8.90;7.97;;;;;;;;;;5052797;28;20173;-78
2021/01/31 05:22:17;;;;;;;9.55;7.95;;;;;;;;;;5052472;28;20456;-78
2021/01/31 05:24:44;;;;;;;8.40;7.50;;;;;;;;;;5052507;28;20175;-78
2021/01/31 05:27:10;;;;;;;10.95;7.90;;;;;;;;;;5052504;28;20176;-78
2021/01/31 05:29:37;;;;;;;10.63;8.13;;;;;;;;;;5051977;28;20242;-79
2021/01/31 05:32:09;;;;;;;8.70;7.03;;;;;;;;;;5052508;28;20582;-80
2021/01/31 05:34:37;;;;;;;7.97;6.85;;;;;;;;;;5052421;28;20168;-78
2021/01/31 05:37:04;;;;;;;7.82;7.03;;;;;;;;;;5052666;28;20173;-78
2021/01/31 05:39:34;;;;;;;9.05;6.72;;;;;;;;;;5052400;28;20169;-77
2021/01/31 05:42:04;;;;;;;10.38;7.80;;;;;;;;;;5052570;28;20168;-78
2021/01/31 05:44:30;;;;;;;11.20;8.30;;;;;;;;;;5052625;28;20171;-78
2021/01/31 05:47:03;;;;;;;9.40;7.50;;;;;;;;;;5052580;28;20184;-78
2021/01/31 05:49:40;;;;;;;11.77;8.23;;;;;;;;;;5052404;28;20616;-78
2021/01/31 05:52:33;;;;;;;8.35;7.50;;;;;;;;;;5052276;28;20203;-78
2021/01/31 05:54:59;;;;;;;9.88;8.05;;;;;;;;;;5047907;28;20185;-78
2021/01/31 05:57:25;;;;;;;10.52;8.75;;;;;;;;;;5052619;28;20519;-76
2021/01/31 05:59:51;;;;;;;11.37;7.50;;;;;;;;;;5051995;28;20174;-77
2021/01/31 06:02:27;;;;;;;8.95;7.18;;;;;;;;;;5052219;28;20464;-76
2021/01/31 06:05:14;;;;;;;8.45;7.28;;;;;;;;;;5052204;28;20181;-77
2021/01/31 06:07:41;;;;;;;8.80;7.93;;;;;;;;;;5052328;28;20227;-77
2021/01/31 06:10:12;;;;;;;8.80;7.70;;;;;;;;;;5052196;28;20159;-77
2021/01/31 06:12:38;;;;;;;11.45;7.72;;;;;;;;;;5052328;28;20172;-76
2021/01/31 06:15:12;;;;;;;9.50;7.82;;;;;;;;;;5052088;28;20640;-79
2021/01/31 06:17:39;;;;;;;10.30;7.90;;;;;;;;;;5053872;28;20172;-77
2021/01/31 06:20:07;;;;;;;11.45;9.35;;;;;;;;;;5059001;28;20228;-77
2021/01/31 06:22:44;;;;;;;15.52;7.53;;;;;;;;;;5042787;28;20224;-76
2021/01/31 06:25:34;;;;;;;8.88;7.15;;;;;;;;;;5055747;28;20185;-78
2021/01/31 06:28:09;;;;;;;10.27;8.27;;;;;;;;;;5042769;28;20687;-77
2021/01/31 06:30:35;;;;;;;8.98;7.20;;;;;;;;;;5055464;28;20176;-74
2021/01/31 06:33:01;;;;;;;9.85;7.25;;;;;;;;;;5055488;28;20181;-77
2021/01/31 06:35:27;;;;;;;9.52;7.90;;;;;;;;;;5037616;28;20180;-75
2021/01/31 06:37:59;;;;;;;8.63;7.32;;;;;;;;;;5055378;28;20169;-77
2021/01/31 06:40:44;;;;;;;8.13;6.30;;;;;;;;;;5055520;28;20508;-77
2021/01/31 06:43:16;;;;;;;7.32;6.57;;;;;;;;;;5054997;28;20210;-77
2021/01/31 06:45:51;;;;;;;9.15;7.40;;;;;;;;;;5054849;28;20159;-77
2021/01/31 06:48:37;;;;;;;8.82;7.43;;;;;;;;;;5055345;28;20172;-78
2021/01/31 06:51:16;;;;;;;8.50;7.65;;;;;;;;;;5004904;28;20208;-77
2021/01/31 06:53:58;;;;;;;8.63;6.63;;;;;;;;;;5054894;28;20168;-77
2021/01/31 06:56:40;;;;;;;9.05;7.13;;;;;;;;;;5055054;28;20173;-75
2021/01/31 06:59:24;;;;;;;7.85;7.05;;;;;;;;;;5054452;28;20198;-76
2021/01/31 07:01:55;;;;;;;7.25;5.68;;;;;;;;;;5054991;28;20534;-76
2021/01/31 07:04:21;;;;;;;8.75;7.05;;;;;;;;;;5054846;28;20270;-76
2021/01/31 07:06:50;;;;;;;7.80;5.73;;;;;;;;;;5054863;28;20223;-77
2021/01/31 07:09:35;;;;;;;7.95;7.15;;;;;;;;;;5054553;28;20413;-77
2021/01/31 07:12:22;;;;;;;7.05;6.25;;;;;;;;;;5054923;28;20515;-77
2021/01/31 07:14:52;;;;;;;13.32;6.65;;;;;;;;;;5036522;28;20560;-76
2021/01/31 07:17:28;;;;;;;8.07;7.20;;;;;;;;;;5054625;28;20206;-78
2021/01/31 07:19:57;;;;;;;10.40;7.07;;;;;;;;;;5054623;28;20179;-77
2021/01/31 07:22:30;;;;;;;10.82;8.05;;;;;;;;;;5054805;28;20247;-77
2021/01/31 07:25:17;;;;;;;8.60;7.03;;;;;;;;;;5054588;28;20175;-77
2021/01/31 07:27:54;;;;;;;8.38;7.03;;;;;;;;;;5054540;28;20275;-77
2021/01/31 07:30:24;;;;;;;10.18;7.32;;;;;;;;;;5053130;28;20200;-77
2021/01/31 07:36:25;;;;;;;10.18;7.68;;;;;;;;;;5054621;28;20184;-77
2021/01/31 07:38:53;;;;;;;10.07;7.65;;;;;;;;;;4938009;29;20187;-78
2021/01/31 07:41:19;;;;;;;8.55;7.40;;;;;;;;;;5035658;28;20198;-77
2021/01/31 07:43:47;;;;;;;7.13;6.43;;;;;;;;;;5054197;28;20679;-76
2021/01/31 07:46:16;;;;;;;10.80;7.68;;;;;;;;;;5054394;28;20234;-77
2021/01/31 07:51:49;;;;;;;8.25;7.38;;;;;;;;;;5054524;28;20222;-77
2021/01/31 07:54:25;;;;;;;10.10;7.60;;;;;;;;;;5053940;28;20170;-77
2021/01/31 07:56:52;;;;;;;11.88;7.57;;;;;;;;;;5054189;28;20165;-76
2021/01/31 07:59:26;;;;;;;8.70;6.68;;;;;;;;;;5054988;28;20182;-76
2021/01/31 08:01:56;;;;;;;9.00;7.65;;;;;;;;;;5058628;28;20176;-77
2021/01/31 08:07:44;;;;;;;7.90;7.10;;;;;;;;;;5054126;28;20633;-77
2021/01/31 08:10:10;;;;;;;6.70;6.03;;;;;;;;;;5053658;28;20586;-77
2021/01/31 08:12:55;;;;;;;7.75;6.80;;;;;;;;;;5053298;28;20230;-78
2021/01/31 08:15:34;;;;;;;8.27;6.90;;;;;;;;;;5053427;28;20228;-79
2021/01/31 08:18:00;;;;;;;6.65;5.82;;;;;;;;;;5053815;28;20168;-78
2021/01/31 08:23:49;;;;;;;6.90;5.53;;;;;;;;;;5053284;28;20574;-77
2021/01/31 08:26:35;;;;;;;7.43;6.13;;;;;;;;;;5053619;28;20260;-76
2021/01/31 08:29:01;;;;;;;6.47;5.85;;;;;;;;;;5052690;28;20320;-77
2021/01/31 08:31:27;;;;;;;9.20;6.50;;;;;;;;;;5053348;28;20169;-77
2021/01/31 08:34:03;;;;;;;8.43;6.40;;;;;;;;;;5053115;28;20499;-77
2021/01/31 08:36:31;;;;;;;6.70;6.00;;;;;;;;;;5053222;28;20439;-77
2021/01/31 08:38:57;;;;;;;8.10;6.63;;;;;;;;;;5052743;28;20538;-78
2021/01/31 08:41:27;;;;;;;7.53;6.45;;;;;;;;;;5053163;28;20172;-78
2021/01/31 08:44:13;;;;;;;5.47;4.97;;;;;;;;;;5035066;28;20212;-78
2021/01/31 08:46:59;;;;;;;7.38;6.65;;;;;;;;;;5035866;28;20201;-77
2021/01/31 08:49:25;;;;;;;7.07;6.00;;;;;;;;;;5051789;28;20231;-77
2021/01/31 08:52:02;;;;;;;7.37;5.57;;;;;;;;;;5052684;28;20170;-77
2021/01/31 08:54:28;;;;;;;7.80;6.93;;;;;;;;;;5052521;28;20469;-76
2021/01/31 08:56:58;;;;;;;11.57;7.45;;;;;;;;;;5053002;28;20172;-77
2021/01/31 08:59:34;;;;;;;7.70;6.35;;;;;;;;;;5052290;28;20525;-77
2021/01/31 09:02:12;;;;;;;6.90;6.07;;;;;;;;;;5035086;28;20522;-77
2021/01/31 09:04:39;;;;;;;7.97;6.45;;;;;;;;;;5052306;28;20580;-76
2021/01/31 09:07:05;;;;;;;10.27;7.85;;;;;;;;;;5052669;28;20484;-76
2021/01/31 09:09:36;;;;;;;9.73;7.72;;;;;;;;;;5052232;28;20586;-77
2021/01/31 09:12:03;;;;;;;8.98;7.25;;;;;;;;;;5052876;28;20168;-77
2021/01/31 09:14:32;;;;;;;9.63;7.15;;;;;;;;;;5052106;28;20277;-77
2021/01/31 09:17:05;;;;;;;10.02;7.03;;;;;;;;;;5052326;28;20211;-77
2021/01/31 09:19:31;;;;;;;8.27;6.47;;;;;;;;;;5051990;28;20268;-78
2021/01/31 09:22:01;;;;;;;9.02;6.85;;;;;;;;;;5052250;28;20183;-77
2021/01/31 09:24:31;;;;;;;9.63;7.55;;;;;;;;;;5052319;28;20168;-77
2021/01/31 09:26:57;;;;;;;8.95;6.10;;;;;;;;;;5052677;28;20196;-77
2021/01/31 09:29:29;;;;;;;9.03;7.07;;;;;;;;;;5051423;28;20604;-76
2021/01/31 09:31:57;;;;;;;8.82;7.03;;;;;;;;;;5052437;28;20418;-76
2021/01/31 09:34:24;;;;;;;9.73;8.00;;;;;;;;;;5052052;28;20180;-76
2021/01/31 09:37:07;;;;;;;8.23;6.82;;;;;;;;;;5052877;28;20172;-76
2021/01/31 09:39:33;;;;;;;8.23;7.20;;;;;;;;;;5054845;28;20206;-76
2021/01/31 09:42:00;;;;;;;9.30;7.75;;;;;;;;;;5055486;28;20180;-76
2021/01/31 09:44:27;;;;;;;7.60;6.63;;;;;;;;;;5052426;28;20307;-75
2021/01/31 09:46:53;;;;;;;18.23;13.63;;;;;;;;;;5052346;28;20179;-76
2021/01/31 09:49:21;;;;;;;12.33;9.43;;;;;;;;;;5052323;28;20179;-76
2021/01/31 09:54:50;;;;;;;9.48;8.23;;;;;;;;;;5056118;28;20688;-76
2021/01/31 09:57:22;;;;;;;10.38;7.65;;;;;;;;;;5056287;28;20169;-78
2021/01/31 09:59:49;;;;;;;11.82;8.65;;;;;;;;;;5055169;28;20175;-77
2021/01/31 10:02:22;;;;;;;9.70;8.10;;;;;;;;;;5056074;28;20169;-78
2021/01/31 10:04:55;;;;;;;9.05;8.13;;;;;;;;;;5055649;28;20180;-76
2021/01/31 10:07:31;;;;;;;9.45;8.23;;;;;;;;;;5055943;28;20169;-77
2021/01/31 10:09:57;;;;;;;15.30;9.65;;;;;;;;;;5047527;28;20178;-77
2021/01/31 10:12:35;;;;;;;13.07;8.77;;;;;;;;;;5055940;28;20188;-79
2021/01/31 10:15:10;;;;;;;8.95;7.30;;;;;;;;;;5055653;28;20186;-77
2021/01/31 10:17:44;;;;;;;11.18;8.20;;;;;;;;;;5055560;28;20176;-78
2021/01/31 10:20:28;;;;;;;9.10;7.32;;;;;;;;;;5055892;28;20539;-75
2021/01/31 10:22:56;;;;;;;10.30;8.82;;;;;;;;;;5055904;28;20258;-76
2021/01/31 10:25:22;;;;;;;12.27;7.95;;;;;;;;;;5055411;28;20165;-76
2021/01/31 10:27:48;;;;;;;11.73;8.88;;;;;;;;;;5055842;28;20264;-76
2021/01/31 10:30:25;;;;;;;11.23;8.73;;;;;;;;;;5054967;28;20671;-75
2021/01/31 10:32:52;;;;;;;12.73;9.55;;;;;;;;;;5055611;28;20177;-77
2021/01/31 10:35:20;;;;;;;10.82;8.23;;;;;;;;;;5037969;28;20178;-76
2021/01/31 10:37:46;;;;;;;8.63;7.22;;;;;;;;;;5055493;28;20162;-75
2021/01/31 10:40:12;;;;;;;11.90;8.35;;;;;;;;;;5055366;28;20157;-77
2021/01/31 10:42:38;;;;;;;10.10;8.15;;;;;;;;;;5055265;28;20685;-77
2021/01/31 10:45:12;;;;;;;11.50;8.35;;;;;;;;;;5055450;28;20227;-77
2021/01/31 10:47:41;;;;;;;8.93;7.50;;;;;;;;;;5055478;28;20166;-77
2021/01/31 10:50:07;;;;;;;12.43;8.70;;;;;;;;;;5055463;28;20169;-77
2021/01/31 10:55:37;;;;;;;13.90;8.27;;;;;;;;;;5055160;28;20216;-79
2021/01/31 10:58:03;;;;;;;14.50;9.10;;;;;;;;;;5055201;28;20525;-76
2021/01/31 11:00:29;;;;;;;9.90;7.05;;;;;;;;;;5054683;28;20170;-77
2021/01/31 11:02:55;;;;;;;14.23;10.75;;;;;;;;;;5054863;28;20213;-77
2021/01/31 11:05:22;;;;;;;12.25;9.13;;;;;;;;;;5054894;28;20192;-78
2021/01/31 11:10:51;;;;;;;8.98;7.57;;;;;;;;;;5054835;28;20173;-78
2021/01/31 11:13:17;;;;;;;10.38;8.10;;;;;;;;;;5054538;28;20230;-76
2021/01/31 11:15:43;;;;;;;11.00;7.80;;;;;;;;;;5054783;28;20176;-76
2021/01/31 11:18:09;;;;;;;9.70;7.30;;;;;;;;;;5054744;28;20412;-77
2021/01/31 11:20:35;;;;;;;9.53;7.90;;;;;;;;;;5058431;28;20446;-76
2021/01/31 11:23:01;;;;;;;11.03;8.30;;;;;;;;;;5056638;28;20476;-77
2021/01/31 11:25:27;;;;;;;9.63;8.00;;;;;;;;;;5054753;28;20407;-76
2021/01/31 11:27:53;;;;;;;10.18;7.68;;;;;;;;;;5054628;28;20419;-75
2021/01/31 11:30:19;;;;;;;10.02;7.05;;;;;;;;;;5054107;28;20169;-77
2021/01/31 11:32:45;;;;;;;10.10;8.85;;;;;;;;;;5054384;28;20170;-77
2021/01/31 11:35:11;;;;;;;11.63;7.88;;;;;;;;;;5054385;28;20250;-77
2021/01/31 11:40:41;;;;;;;16.77;10.10;;;;;;;;;;5054506;28;20239;-77
2021/01/31 11:43:07;;;;;;;9.63;6.93;;;;;;;;;;5054024;28;20207;-77
2021/01/31 11:45:33;;;;;;;10.97;8.53;;;;;;;;;;5054297;28;20541;-76
2021/01/31 11:47:59;;;;;;;10.80;7.93;;;;;;;;;;5054044;28;20436;-77
2021/01/31 11:50:25;;;;;;;9.73;8.00;;;;;;;;;;5054136;28;20177;-77
2021/01/31 11:55:54;;;;;;;12.75;9.07;;;;;;;;;;5053980;28;20471;-79
2021/01/31 11:58:20;;;;;;;9.93;8.88;;;;;;;;;;5053237;28;20199;-77
2021/01/31 12:00:46;;;;;;;11.27;8.77;;;;;;;;;;5053841;28;20648;-76
2021/01/31 12:03:12;;;;;;;10.50;8.07;;;;;;;;;;5053769;28;20214;-76
2021/01/31 12:05:39;;;;;;;11.60;8.95;;;;;;;;;;5053808;28;20413;-76
2021/01/31 12:11:09;;;;;;;11.50;8.20;;;;;;;;;;5054046;28;20648;-75
2021/01/31 12:13:35;;;;;;;10.65;8.20;;;;;;;;;;5053514;28;20226;-76
2021/01/31 12:16:01;;;;;;;10.82;8.25;;;;;;;;;;5053056;28;20190;-77
2021/01/31 12:18:27;;;;;;;12.52;8.75;;;;;;;;;;5053304;28;20546;-76
2021/01/31 12:20:53;;;;;;;11.38;9.23;;;;;;;;;;5035863;28;20188;-77
2021/01/31 12:26:22;;;;;;;10.30;8.82;;;;;;;;;;5053655;28;20168;-77
2021/01/31 12:28:49;;;;;;;12.75;8.73;;;;;;;;;;5052534;28;20172;-78
2021/01/31 12:31:15;;;;;;;12.20;8.38;;;;;;;;;;5053399;28;20165;-75
2021/01/31 12:33:41;;;;;;;9.30;7.77;;;;;;;;;;5053019;28;20196;-77
2021/01/31 12:36:07;;;;;;;10.00;7.43;;;;;;;;;;5053262;28;20457;-76
2021/01/31 12:41:37;;;;;;;10.27;7.22;;;;;;;;;;5053260;28;20228;-78
2021/01/31 12:44:03;;;;;;;10.75;7.30;;;;;;;;;;5052908;28;20220;-78
2021/01/31 12:46:29;;;;;;;13.05;9.65;;;;;;;;;;5053117;28;20212;-79
2021/01/31 12:48:55;;;;;;;11.20;8.53;;;;;;;;;;5052792;28;20181;-75
2021/01/31 12:51:21;;;;;;;12.60;7.43;;;;;;;;;;5053001;28;20412;-79
2021/01/31 12:56:51;;;;;;;11.65;7.85;;;;;;;;;;5052917;28;20416;-77
2021/01/31 12:59:17;;;;;;;14.48;9.82;;;;;;;;;;5052482;28;20243;-78
2021/01/31 13:01:43;;;;;;;19.48;11.63;;;;;;;;;;5061181;28;20179;-77
2021/01/31 13:04:09;;;;;;;10.53;8.67;;;;;;;;;;5054285;28;20525;-79
2021/01/31 13:06:35;;;;;;;11.47;8.77;;;;;;;;;;5052912;28;20414;-78
2021/01/31 13:09:01;;;;;;;11.48;7.57;;;;;;;;;;5052856;28;20477;-78
2021/01/31 13:11:27;;;;;;;9.30;8.33;;;;;;;;;;5052877;28;20584;-77
2021/01/31 13:13:53;;;;;;;12.80;9.40;;;;;;;;;;5052124;28;20473;-77
2021/01/31 13:16:19;;;;;;;9.47;8.47;;;;;;;;;;5052662;28;20441;-75
2021/01/31 13:18:47;;;;;;;10.18;8.43;;;;;;;;;;5052671;28;20431;-79
2021/01/31 13:21:13;;;;;;;11.25;7.68;;;;;;;;;;5052431;28;20253;-79
2021/01/31 13:26:42;;;;;;;11.82;8.77;;;;;;;;;;5052819;28;20461;-76
2021/01/31 13:29:08;;;;;;;10.90;8.27;;;;;;;;;;5055675;28;20202;-77
2021/01/31 13:31:36;;;;;;;11.70;8.97;;;;;;;;;;5056375;28;20415;-77
2021/01/31 13:34:02;;;;;;;17.67;8.73;;;;;;;;;;5056435;28;20420;-79
2021/01/31 13:36:28;;;;;;;13.07;8.52;;;;;;;;;;5056462;28;20253;-76
2021/01/31 13:41:58;;;;;;;11.50;9.00;;;;;;;;;;5056467;28;20472;-75
2021/01/31 13:44:24;;;;;;;12.82;9.57;;;;;;;;;;5053868;28;20210;-75
2021/01/31 13:46:51;;;;;;;11.90;9.13;;;;;;;;;;5053401;28;20499;-78
2021/01/31 13:49:17;;;;;;;10.10;8.82;;;;;;;;;;5054259;28;20174;-78
2021/01/31 13:51:43;;;;;;;14.07;8.70;;;;;;;;;;5054755;28;20574;-80
2021/01/31 13:57:12;;;;;;;12.07;9.52;;;;;;;;;;5054764;28;20170;-79
2021/01/31 13:59:38;;;;;;;11.60;9.27;;;;;;;;;;5054409;28;20617;-77
2021/01/31 14:02:04;;;;;;;18.20;9.30;;;;;;;;;;5054526;28;20478;-77
2021/01/31 14:04:30;;;;;;;12.95;9.30;;;;;;;;;;5036956;28;20487;-79
2021/01/31 14:06:56;;;;;;;13.63;9.13;;;;;;;;;;5054610;28;20174;-77
2021/01/31 14:12:25;;;;;;;11.38;9.95;;;;;;;;;;5054799;28;20170;-80
2021/01/31 14:14:52;;;;;;;11.47;8.47;;;;;;;;;;5054827;28;20225;-80
2021/01/31 14:17:18;;;;;;;15.20;9.07;;;;;;;;;;5055162;28;20412;-79
2021/01/31 14:19:45;;;;;;;13.37;9.37;;;;;;;;;;5055177;28;20232;-80
2021/01/31 14:22:11;;;;;;;16.75;12.13;;;;;;;;;;5055069;28;20426;-77
2021/01/31 14:27:40;;;;;;;12.60;9.35;;;;;;;;;;5054839;28;20416;-75
2021/01/31 14:30:07;;;;;;;11.67;10.33;;;;;;;;;;5051227;28;20170;-79
2021/01/31 14:32:33;;;;;;;10.60;9.00;;;;;;;;;;5053435;28;20421;-77
2021/01/31 14:34:59;;;;;;;11.60;8.98;;;;;;;;;;5054029;28;20249;-76
2021/01/31 14:37:25;;;;;;;11.40;8.47;;;;;;;;;;5053311;28;20201;-78
2021/01/31 14:42:55;;;;;;;14.48;9.23;;;;;;;;;;5057094;28;20376;-77
2021/01/31 14:45:23;;;;;;;12.25;9.20;;;;;;;;;;5055481;28;20648;-76
2021/01/31 14:47:49;;;;;;;11.88;9.80;;;;;;;;;;5053545;28;20165;-76
2021/01/31 14:50:15;;;;;;;12.07;9.67;;;;;;;;;;5053497;28;20182;-77
2021/01/31 14:52:41;;;;;;;13.30;9.80;;;;;;;;;;5053431;28;20469;-76
2021/01/31 14:58:11;;;;;;;16.75;9.90;;;;;;;;;;5053852;28;20918;-79
2021/01/31 15:00:38;;;;;;;10.57;8.17;;;;;;;;;;5054044;28;20180;-77
2021/01/31 15:03:07;;;;;;;12.20;8.50;;;;;;;;;;5053906;28;20546;-78
2021/01/31 15:05:34;;;;;;;16.85;10.25;;;;;;;;;;5053879;28;20163;-77
2021/01/31 15:08:00;;;;;;;11.95;9.95;;;;;;;;;;5053938;28;20574;-77
2021/01/31 15:10:26;;;;;;;13.33;9.80;;;;;;;;;;5053774;28;20250;-78
2021/01/31 15:12:52;;;;;;;12.85;9.90;;;;;;;;;;5036185;28;20821;-79
2021/01/31 15:15:18;;;;;;;14.80;9.50;;;;;;;;;;5053332;28;20227;-77
2021/01/31 15:17:44;;;;;;;13.60;9.32;;;;;;;;;;5053918;28;20414;-79
2021/01/31 15:20:12;;;;;;;14.48;9.15;;;;;;;;;;5053551;28;20170;-82
2021/01/31 15:22:38;;;;;;;13.45;9.80;;;;;;;;;;5052720;28;20266;-84
2021/01/31 15:28:08;;;;;;;10.75;9.50;;;;;;;;;;5053812;28;20630;-83
2021/01/31 15:30:34;;;;;;;11.82;9.45;;;;;;;;;;5053059;28;20250;-76
2021/01/31 15:33:00;;;;;;;11.88;9.25;;;;;;;;;;5053290;28;20266;-78
2021/01/31 15:35:26;;;;;;;11.30;9.50;;;;;;;;;;5052863;28;20192;-78
2021/01/31 15:37:53;;;;;;;11.40;9.32;;;;;;;;;;5053259;28;20186;-79
2021/01/31 15:43:22;;;;;;;12.77;9.00;;;;;;;;;;5053074;28;20757;-81
2021/01/31 15:45:48;;;;;;;16.27;9.32;;;;;;;;;;5052897;28;20179;-77
2021/01/31 15:48:14;;;;;;;12.10;10.00;;;;;;;;;;5053780;28;20180;-76
2021/01/31 15:50:40;;;;;;;16.73;9.77;;;;;;;;;;5052816;28;20270;-76
2021/01/31 15:53:06;;;;;;;13.50;9.63;;;;;;;;;;5053734;28;20502;-75
2021/01/31 15:58:36;;;;;;;12.75;9.27;;;;;;;;;;5053669;28;20945;-77
2021/01/31 16:01:02;;;;;;;13.17;8.90;;;;;;;;;;5053556;28;20170;-78
2021/01/31 16:03:28;;;;;;;11.30;9.98;;;;;;;;;;5053475;28;20476;-78
2021/01/31 16:05:54;;;;;;;11.00;8.33;;;;;;;;;;5053604;28;20197;-78
2021/01/31 16:08:20;;;;;;;14.68;9.18;;;;;;;;;;5053827;28;20455;-80
2021/01/31 16:13:49;;;;;;;11.02;8.52;;;;;;;;;;5053074;28;20878;-77